createdAt,value
2022-08-19T00:01:53.449Z,14.90
2022-08-19T00:04:28.846Z,14.20
2022-08-19T00:07:01.407Z,14.80
2022-08-19T00:09:33.463Z,14.30
2022-08-19T00:12:06.970Z,13.50
2022-08-19T00:14:39.264Z,14.80
2022-08-19T00:17:11.727Z,14.30
2022-08-19T00:19:43.550Z,14.80
2022-08-19T00:22:15.688Z,15.10
2022-08-19T00:24:50.830Z,14.50
2022-08-19T00:27:25.709Z,14.20
2022-08-19T00:30:01.197Z,15.40
2022-08-19T00:32:34.097Z,15.10
2022-08-19T00:35:07.286Z,14.20
2022-08-19T00:37:44.205Z,13.80
2022-08-19T00:40:16.737Z,14.00
2022-08-19T00:42:49.169Z,14.60
2022-08-19T00:45:24.549Z,14.90
2022-08-19T00:47:59.765Z,15.10
2022-08-19T00:50:32.460Z,14.30
2022-08-19T00:53:06.070Z,15.00
2022-08-19T00:55:39.654Z,15.60
2022-08-19T00:58:18.479Z,14.00
2022-08-19T01:00:51.176Z,15.40
2022-08-19T01:03:24.149Z,14.70
2022-08-19T01:05:57.973Z,14.70
2022-08-19T01:08:30.361Z,14.70
2022-08-19T01:11:03.133Z,14.60
2022-08-19T01:13:49.146Z,14.20
2022-08-19T01:16:27.553Z,14.40
2022-08-19T01:18:59.434Z,15.50
2022-08-19T01:21:36.607Z,15.30
2022-08-19T01:24:09.129Z,14.40
2022-08-19T01:26:45.788Z,14.70
2022-08-19T01:29:18.926Z,15.60
2022-08-19T01:31:54.356Z,14.90
2022-08-19T01:34:26.363Z,16.20
2022-08-19T01:36:58.224Z,14.70
2022-08-19T01:39:30.368Z,16.00
2022-08-19T01:42:07.306Z,15.90
2022-08-19T01:44:39.682Z,15.70
2022-08-19T01:47:12.135Z,15.40
2022-08-19T01:49:44.039Z,14.90
2022-08-19T01:52:15.961Z,15.60
2022-08-19T01:54:47.737Z,15.50
2022-08-19T01:57:19.975Z,14.50
2022-08-19T01:59:52.183Z,15.10
2022-08-19T02:02:24.111Z,14.70
2022-08-19T02:04:55.992Z,14.40
2022-08-19T02:09:36.653Z,15.70
2022-08-19T02:12:09.907Z,15.90
2022-08-19T02:14:42.126Z,16.40
2022-08-19T02:17:16.550Z,15.80
2022-08-19T02:19:50.093Z,15.20
2022-08-19T02:22:22.093Z,15.80
2022-08-19T02:24:54.157Z,15.40
2022-08-19T02:27:27.524Z,16.20
2022-08-19T02:29:59.355Z,14.90
2022-08-19T02:32:32.046Z,15.60
2022-08-19T02:35:12.148Z,16.40
2022-08-19T02:38:03.489Z,16.00
2022-08-19T02:40:36.287Z,15.70
2022-08-19T02:43:09.572Z,16.40
2022-08-19T02:45:42.492Z,16.40
2022-08-19T02:48:21.807Z,16.30
2022-08-19T02:50:56.132Z,16.10
2022-08-19T02:53:30.569Z,16.90
2022-08-19T02:56:02.413Z,17.00
2022-08-19T02:58:34.304Z,16.20
2022-08-19T03:01:06.880Z,16.50
2022-08-19T03:03:39.119Z,15.70
2022-08-19T03:06:14.650Z,16.40
2022-08-19T03:08:48.340Z,16.30
2022-08-19T03:11:22.539Z,19.50
2022-08-19T03:13:55.444Z,19.10
2022-08-19T03:16:33.540Z,16.90
2022-08-19T03:19:05.719Z,15.60
2022-08-19T03:21:37.657Z,16.20
2022-08-19T03:24:11.180Z,16.30
2022-08-19T03:26:44.940Z,16.40
2022-08-19T03:29:18.243Z,17.30
2022-08-19T03:32:05.076Z,17.30
2022-08-19T03:34:39.023Z,15.90
2022-08-19T03:37:15.932Z,17.20
2022-08-19T03:39:47.903Z,16.70
2022-08-19T03:42:38.297Z,16.90
2022-08-19T03:45:12.596Z,16.10
2022-08-19T03:47:44.620Z,15.60
2022-08-19T03:50:16.509Z,15.50
2022-08-19T03:52:52.658Z,17.00
2022-08-19T03:59:01.033Z,16.20
2022-08-19T04:01:35.533Z,16.90
2022-08-19T04:04:08.103Z,16.30
2022-08-19T04:06:42.484Z,15.40
2022-08-19T04:09:15.095Z,16.20
2022-08-19T04:11:49.202Z,16.50
2022-08-19T04:14:25.158Z,16.00
2022-08-19T04:16:57.313Z,16.70
2022-08-19T04:19:31.130Z,15.50
2022-08-19T04:22:03.395Z,15.70
2022-08-19T04:24:37.718Z,15.50
2022-08-19T04:27:09.806Z,15.40
2022-08-19T04:29:42.479Z,15.90
2022-08-19T04:32:16.879Z,15.20
2022-08-19T04:35:02.654Z,15.00
2022-08-19T04:37:41.898Z,14.50
2022-08-19T04:40:32.754Z,15.30
2022-08-19T04:43:04.606Z,15.60
2022-08-19T04:45:43.455Z,15.40
2022-08-19T04:48:26.143Z,16.70
2022-08-19T04:51:14.410Z,15.00
2022-08-19T04:53:46.893Z,15.10
2022-08-19T04:56:21.841Z,16.70
2022-08-19T04:58:54.676Z,16.10
2022-08-19T05:01:30.681Z,15.10
2022-08-19T05:04:05.265Z,15.10
2022-08-19T05:06:38.467Z,14.90
2022-08-19T05:09:10.301Z,15.40
2022-08-19T05:11:42.512Z,15.00
2022-08-19T05:14:14.883Z,15.10
2022-08-19T05:16:46.719Z,15.40
2022-08-19T05:19:37.371Z,15.20
2022-08-19T05:22:26.945Z,14.80
2022-08-19T05:25:12.092Z,14.30
2022-08-19T05:27:44.874Z,14.30
2022-08-19T05:30:17.458Z,14.10
2022-08-19T05:32:49.477Z,13.80
2022-08-19T05:35:21.418Z,13.40
2022-08-19T05:37:58.912Z,13.70
2022-08-19T05:40:31.474Z,13.80
2022-08-19T05:43:03.362Z,14.30
2022-08-19T05:45:39.802Z,14.70
2022-08-19T05:48:12.434Z,13.50
2022-08-19T05:50:46.378Z,13.50
2022-08-19T05:53:19.772Z,13.70
2022-08-19T05:55:51.829Z,13.40
2022-08-19T05:58:25.077Z,13.20
2022-08-19T06:01:05.316Z,13.10
2022-08-19T06:03:38.368Z,13.60
2022-08-19T06:06:11.922Z,12.50
2022-08-19T06:08:46.415Z,12.70
2022-08-19T06:11:22.292Z,13.30
2022-08-19T06:14:00.202Z,13.00
2022-08-19T06:16:36.158Z,13.00
2022-08-19T06:19:11.482Z,12.20
2022-08-19T06:21:44.867Z,13.30
2022-08-19T06:24:20.059Z,12.30
2022-08-19T06:26:56.727Z,12.20
2022-08-19T06:29:33.111Z,12.10
2022-08-19T06:32:06.067Z,12.20
2022-08-19T06:34:38.244Z,12.80
2022-08-19T06:37:10.629Z,12.30
2022-08-19T06:39:45.296Z,11.10
2022-08-19T06:42:19.537Z,14.30
2022-08-19T06:44:53.876Z,11.50
2022-08-19T06:47:28.713Z,12.00
2022-08-19T06:50:04.057Z,11.30
2022-08-19T06:52:38.567Z,11.10
2022-08-19T06:55:13.228Z,10.90
2022-08-19T06:57:47.359Z,10.60
2022-08-19T07:00:19.688Z,10.50
2022-08-19T07:02:57.260Z,11.20
2022-08-19T07:05:31.342Z,10.70
2022-08-19T07:08:06.565Z,10.30
2022-08-19T07:10:38.704Z,9.60
2022-08-19T07:13:15.218Z,10.40
2022-08-19T07:15:48.215Z,9.10
2022-08-19T07:18:22.590Z,9.30
2022-08-19T07:21:04.060Z,9.70
2022-08-19T07:26:16.887Z,9.70
2022-08-19T07:28:52.850Z,9.80
2022-08-19T07:31:28.077Z,8.70
2022-08-19T07:34:03.521Z,9.70
2022-08-19T07:36:36.886Z,9.40
2022-08-19T07:39:12.275Z,9.60
2022-08-19T07:41:45.376Z,8.80
2022-08-19T07:44:18.766Z,9.00
2022-08-19T07:46:53.585Z,9.20
2022-08-19T07:49:26.692Z,8.60
2022-08-19T07:52:03.167Z,9.20
2022-08-19T07:54:38.205Z,8.60
2022-08-19T07:57:10.292Z,8.40
2022-08-19T07:59:42.251Z,9.00
2022-08-19T08:02:14.084Z,8.70
2022-08-19T08:05:03.570Z,9.10
2022-08-19T08:07:53.292Z,8.50
2022-08-19T08:10:25.299Z,8.10
2022-08-19T08:13:10.224Z,7.80
2022-08-19T08:15:43.781Z,8.50
2022-08-19T08:18:15.788Z,9.30
2022-08-19T08:20:47.651Z,8.40
2022-08-19T08:23:26.166Z,8.30
2022-08-19T08:26:00.166Z,7.90
2022-08-19T08:28:32.055Z,7.80
2022-08-19T08:31:09.516Z,8.10
2022-08-19T08:33:43.011Z,9.50
2022-08-19T08:36:15.877Z,8.10
2022-08-19T08:38:48.184Z,8.50
2022-08-19T08:41:30.533Z,6.80
2022-08-19T08:44:05.179Z,7.60
2022-08-19T08:46:43.996Z,7.70
2022-08-19T08:49:27.446Z,7.70
2022-08-19T08:52:04.593Z,7.80
2022-08-19T08:54:41.178Z,7.10
2022-08-19T08:57:34.875Z,7.10
2022-08-19T09:00:20.742Z,7.40
2022-08-19T09:02:52.803Z,7.20
2022-08-19T09:05:29.159Z,7.30
2022-08-19T09:08:19.313Z,7.80
2022-08-19T09:10:55.696Z,7.30
2022-08-19T09:13:37.959Z,7.30
2022-08-19T09:16:15.078Z,7.60
2022-08-19T09:18:53.902Z,7.20
2022-08-19T09:21:33.170Z,7.60
2022-08-19T09:24:07.179Z,8.40
2022-08-19T09:26:48.416Z,7.40
2022-08-19T09:29:27.352Z,7.00
2022-08-19T09:31:59.247Z,7.20
2022-08-19T09:34:31.735Z,7.60
2022-08-19T09:37:09.988Z,7.30
2022-08-19T09:39:43.839Z,8.30
2022-08-19T09:42:30.002Z,8.10
2022-08-19T09:45:05.087Z,8.00
2022-08-19T09:47:42.580Z,7.50
2022-08-19T09:50:16.813Z,7.80
2022-08-19T09:52:55.098Z,7.70
2022-08-19T09:55:31.927Z,7.60
2022-08-19T09:58:05.985Z,8.20
2022-08-19T10:00:41.041Z,8.40
2022-08-19T10:03:13.651Z,8.50
2022-08-19T10:05:55.215Z,7.50
2022-08-19T10:08:31.320Z,8.20
2022-08-19T10:11:28.692Z,8.70
2022-08-19T10:13:58.059Z,8.20
2022-08-19T10:16:30.397Z,8.20
2022-08-19T10:19:05.918Z,8.90
2022-08-19T10:21:38.203Z,8.20
2022-08-19T10:24:12.650Z,8.20
2022-08-19T10:26:48.510Z,8.00
2022-08-19T10:29:31.937Z,9.10
2022-08-19T10:32:09.732Z,8.00
2022-08-19T10:34:48.919Z,8.00
2022-08-19T10:37:23.953Z,8.20
2022-08-19T10:40:02.967Z,8.50
2022-08-19T10:42:34.942Z,7.80
2022-08-19T10:45:10.643Z,8.20
2022-08-19T10:47:42.514Z,8.10
2022-08-19T10:50:32.569Z,8.00
2022-08-19T10:53:10.569Z,7.70
2022-08-19T10:56:00.185Z,8.90
2022-08-19T10:58:32.430Z,7.30
2022-08-19T11:01:04.637Z,8.20
2022-08-19T11:03:36.679Z,7.80
2022-08-19T11:06:10.836Z,7.30
2022-08-19T11:08:48.811Z,8.10
2022-08-19T11:11:21.065Z,7.60
2022-08-19T11:13:54.126Z,9.50
2022-08-19T11:16:31.227Z,8.80
2022-08-19T11:19:04.887Z,8.30
2022-08-19T11:21:41.054Z,8.70
2022-08-19T11:24:17.715Z,7.80
2022-08-19T11:26:57.914Z,8.80
2022-08-19T11:29:30.239Z,7.80
2022-08-19T11:32:05.698Z,7.80
2022-08-19T11:34:38.075Z,7.70
2022-08-19T11:37:10.400Z,7.90
2022-08-19T11:39:42.321Z,7.90
2022-08-19T11:42:34.681Z,8.70
2022-08-19T11:45:12.739Z,8.40
2022-08-19T11:47:45.135Z,7.90
2022-08-19T11:50:17.291Z,9.00
2022-08-19T11:52:51.118Z,7.90
2022-08-19T11:55:23.480Z,7.70
2022-08-19T11:57:55.630Z,7.70
2022-08-19T12:00:27.893Z,7.90
2022-08-19T12:03:00.566Z,7.70
2022-08-19T12:05:32.572Z,8.20
2022-08-19T12:08:07.511Z,7.50
2022-08-19T12:10:39.744Z,7.30
2022-08-19T12:13:12.242Z,7.00
2022-08-19T12:15:45.988Z,7.30
2022-08-19T12:18:19.258Z,7.80
2022-08-19T12:20:53.280Z,7.40
2022-08-19T12:23:25.526Z,7.20
2022-08-19T12:26:00.237Z,7.70
2022-08-19T12:28:32.679Z,7.70
2022-08-19T12:31:05.177Z,7.90
2022-08-19T12:33:37.522Z,7.30
2022-08-19T12:36:12.831Z,7.40
2022-08-19T12:38:46.295Z,7.20
2022-08-19T12:41:19.713Z,7.10
2022-08-19T12:43:52.451Z,6.70
2022-08-19T12:46:26.174Z,7.00
2022-08-19T12:49:00.589Z,7.40
2022-08-19T12:51:37.170Z,7.20
2022-08-19T12:54:09.209Z,6.90
2022-08-19T12:56:43.568Z,7.30
2022-08-19T12:59:17.711Z,6.80
2022-08-19T13:01:49.799Z,7.30
2022-08-19T13:04:23.926Z,7.20
2022-08-19T13:06:55.794Z,6.70
2022-08-19T13:09:28.197Z,7.80
2022-08-19T13:12:03.946Z,7.10
2022-08-19T13:14:36.681Z,7.30
2022-08-19T13:17:12.849Z,7.40
2022-08-19T13:19:44.714Z,7.30
2022-08-19T13:22:16.647Z,7.20
2022-08-19T13:24:54.375Z,7.60
2022-08-19T13:27:26.448Z,7.00
2022-08-19T13:30:16.190Z,8.20
2022-08-19T13:33:05.726Z,7.90
2022-08-19T13:35:40.858Z,7.50
2022-08-19T13:38:13.943Z,7.70
2022-08-19T13:40:47.518Z,7.80
2022-08-19T13:43:23.035Z,9.10
2022-08-19T13:45:57.877Z,8.40
2022-08-19T13:48:32.714Z,8.70
2022-08-19T13:51:07.101Z,7.70
2022-08-19T13:53:39.778Z,8.30
2022-08-19T13:56:22.984Z,7.50
2022-08-19T13:58:59.415Z,8.70
2022-08-19T14:01:32.946Z,9.70
2022-08-19T14:04:06.881Z,7.70
2022-08-19T14:06:39.124Z,7.90
2022-08-19T14:09:10.985Z,8.10
2022-08-19T14:11:42.827Z,8.20
2022-08-19T14:14:16.542Z,8.10
2022-08-19T14:16:49.753Z,8.00
2022-08-19T14:19:22.641Z,8.00
2022-08-19T14:21:58.912Z,7.40
2022-08-19T14:24:33.112Z,7.80
2022-08-19T14:27:05.380Z,7.40
2022-08-19T14:29:38.015Z,6.40
2022-08-19T14:32:13.043Z,6.30
2022-08-19T14:34:48.764Z,6.20
2022-08-19T14:37:20.695Z,6.40
2022-08-19T14:39:54.266Z,7.20
2022-08-19T14:42:26.316Z,6.90
2022-08-19T14:45:01.722Z,6.70
2022-08-19T14:47:33.650Z,7.90
2022-08-19T14:50:07.546Z,7.50
2022-08-19T14:52:45.241Z,7.50
2022-08-19T14:55:20.123Z,8.10
2022-08-19T14:57:55.893Z,7.50
2022-08-19T15:00:30.707Z,7.50
2022-08-19T15:03:02.748Z,7.20
2022-08-19T15:05:34.663Z,7.30
2022-08-19T15:08:13.451Z,7.90
2022-08-19T15:10:46.847Z,7.50
2022-08-19T15:13:18.964Z,7.30
2022-08-19T15:15:52.741Z,8.40
2022-08-19T15:18:25.494Z,9.30
2022-08-19T15:20:58.015Z,8.60
2022-08-19T15:23:30.045Z,8.70
2022-08-19T15:26:02.117Z,8.00
2022-08-19T15:28:34.096Z,8.40
2022-08-19T15:31:06.810Z,7.90
2022-08-19T15:33:45.196Z,7.90
2022-08-19T15:36:21.136Z,7.30
2022-08-19T15:38:54.126Z,7.80
2022-08-19T15:41:28.101Z,7.10
2022-08-19T15:44:02.377Z,7.00
2022-08-19T15:46:35.810Z,7.00
2022-08-19T15:49:09.258Z,7.70
2022-08-19T15:51:43.240Z,7.50
2022-08-19T15:54:21.571Z,6.70
2022-08-19T15:57:12.086Z,6.70
2022-08-19T16:00:02.851Z,6.80
2022-08-19T16:02:54.803Z,5.90
2022-08-19T16:05:45.855Z,6.00
2022-08-19T16:08:18.480Z,6.30
2022-08-19T16:10:50.479Z,5.80
2022-08-19T16:13:22.583Z,6.20
2022-08-19T16:15:57.245Z,6.00
2022-08-19T16:18:29.807Z,7.10
2022-08-19T16:21:01.919Z,6.70
2022-08-19T16:23:34.403Z,6.30
2022-08-19T16:26:06.854Z,6.50
2022-08-19T16:28:39.863Z,5.90
2022-08-19T16:31:13.604Z,6.50
2022-08-19T16:33:45.617Z,6.50
2022-08-19T16:36:17.869Z,6.10
2022-08-19T16:38:50.190Z,6.30
2022-08-19T16:41:23.298Z,6.80
2022-08-19T16:43:55.580Z,7.60
2022-08-19T16:46:28.302Z,7.60
2022-08-19T16:49:00.660Z,7.70
2022-08-19T16:51:33.904Z,8.80
2022-08-19T16:54:07.752Z,8.80
2022-08-19T16:56:39.989Z,8.90
2022-08-19T16:59:13.905Z,10.10
2022-08-19T17:01:45.960Z,9.50
2022-08-19T17:04:18.116Z,8.90
2022-08-19T17:06:52.368Z,8.60
2022-08-19T17:09:25.858Z,9.70
2022-08-19T17:11:58.918Z,10.30
2022-08-19T17:14:31.649Z,9.60
2022-08-19T17:17:03.704Z,9.20
2022-08-19T17:19:36.471Z,8.90
2022-08-19T17:22:11.453Z,10.20
2022-08-19T17:24:43.479Z,10.30
2022-08-19T17:27:15.492Z,9.90
2022-08-19T17:29:47.469Z,9.30
2022-08-19T17:32:25.445Z,9.30
2022-08-19T17:34:58.029Z,10.00
2022-08-19T17:37:30.031Z,9.50
2022-08-19T17:40:02.728Z,9.20
2022-08-19T17:42:35.352Z,8.40
2022-08-19T17:45:11.279Z,9.90
2022-08-19T17:47:43.612Z,10.10
2022-08-19T17:50:18.802Z,9.10
2022-08-19T17:52:52.495Z,8.60
2022-08-19T17:55:25.831Z,9.70
2022-08-19T17:57:58.213Z,8.80
2022-08-19T18:00:30.454Z,9.60
2022-08-19T18:03:07.646Z,8.90
2022-08-19T18:05:46.513Z,10.30
2022-08-19T18:08:18.677Z,9.70
2022-08-19T18:10:50.900Z,9.20
2022-08-19T18:13:25.520Z,10.10
2022-08-19T18:15:58.718Z,9.20
2022-08-19T18:18:32.732Z,10.10
2022-08-19T18:21:04.759Z,8.70
2022-08-19T18:23:43.852Z,8.90
2022-08-19T18:26:17.732Z,9.30
2022-08-19T18:28:51.828Z,10.10
2022-08-19T18:31:24.523Z,8.80
2022-08-19T18:33:56.702Z,9.80
2022-08-19T18:36:52.624Z,8.80
2022-08-19T18:39:39.423Z,10.90
2022-08-19T18:42:40.425Z,12.00
2022-08-19T18:45:30.878Z,11.10
2022-08-19T18:48:26.504Z,9.40
2022-08-19T18:51:01.940Z,9.90
2022-08-19T18:53:35.764Z,9.20
2022-08-19T18:56:09.095Z,9.10
2022-08-19T18:58:44.624Z,10.10
2022-08-19T19:01:19.058Z,10.00
2022-08-19T19:03:54.217Z,9.10
2022-08-19T19:06:35.856Z,10.20
2022-08-19T19:09:09.876Z,8.70
2022-08-19T19:11:55.962Z,8.70
2022-08-19T19:14:48.231Z,9.40
2022-08-19T19:17:28.547Z,9.00
2022-08-19T19:20:00.938Z,10.30
2022-08-19T19:22:33.688Z,13.30
2022-08-19T19:25:11.894Z,10.00
2022-08-19T19:27:43.969Z,9.90
2022-08-19T19:30:16.118Z,9.80
2022-08-19T19:32:48.635Z,9.20
2022-08-19T19:35:20.605Z,9.40
2022-08-19T19:37:52.893Z,10.00
2022-08-19T19:40:28.022Z,10.60
2022-08-19T19:43:04.888Z,9.90
2022-08-19T19:45:37.995Z,10.10
2022-08-19T19:48:10.012Z,9.80
2022-08-19T19:50:44.625Z,10.50
2022-08-19T19:53:20.207Z,10.00
2022-08-19T19:55:54.868Z,10.20
2022-08-19T19:58:31.310Z,10.30
2022-08-19T20:01:09.540Z,11.00
2022-08-19T20:03:42.960Z,10.20
2022-08-19T20:06:19.539Z,12.40
2022-08-19T20:09:10.642Z,12.80
2022-08-19T20:11:48.332Z,11.50
2022-08-19T20:14:28.128Z,12.40
2022-08-19T20:17:01.769Z,12.10
2022-08-19T20:19:37.408Z,11.00
2022-08-19T20:22:10.574Z,11.80
2022-08-19T20:24:44.873Z,12.20
2022-08-19T20:27:17.176Z,10.60
2022-08-19T20:29:50.093Z,10.10
2022-08-19T20:32:24.270Z,10.40
2022-08-19T20:34:58.966Z,10.70
2022-08-19T20:37:30.841Z,11.90
2022-08-19T20:40:06.444Z,11.40
2022-08-19T20:42:40.497Z,10.50
2022-08-19T20:45:33.074Z,10.70
2022-08-19T20:48:08.734Z,11.30
2022-08-19T20:50:41.101Z,10.80
2022-08-19T20:53:16.232Z,10.50
2022-08-19T20:55:50.388Z,10.30
2022-08-19T20:58:23.634Z,11.10
2022-08-19T21:01:01.499Z,11.80
2022-08-19T21:03:36.294Z,11.30
2022-08-19T21:06:16.288Z,11.10
2022-08-19T21:08:52.167Z,11.20
2022-08-19T21:11:26.791Z,11.40
2022-08-19T21:13:58.659Z,11.40
2022-08-19T21:16:32.732Z,11.80
2022-08-19T21:19:08.252Z,10.60
2022-08-19T21:21:40.140Z,10.30
2022-08-19T21:24:12.044Z,10.30
2022-08-19T21:26:49.442Z,11.60
2022-08-19T21:29:23.425Z,12.30
2022-08-19T21:31:55.445Z,10.60
2022-08-19T21:34:27.728Z,12.50
2022-08-19T21:37:02.392Z,17.00
2022-08-19T21:39:34.566Z,14.10
2022-08-19T21:42:07.630Z,10.60
2022-08-19T21:44:40.805Z,10.80
2022-08-19T21:47:18.028Z,9.90
2022-08-19T21:49:49.900Z,9.80
2022-08-19T21:52:25.971Z,10.20
2022-08-19T21:54:59.316Z,10.60
2022-08-19T21:57:31.169Z,9.90
2022-08-19T22:00:03.109Z,9.20
2022-08-19T22:02:37.711Z,10.20
2022-08-19T22:05:10.462Z,10.40
2022-08-19T22:07:42.918Z,10.80
2022-08-19T22:10:14.835Z,10.40
2022-08-19T22:12:51.766Z,10.00
2022-08-19T22:15:27.534Z,10.30
2022-08-19T22:18:01.644Z,20.60
2022-08-19T22:20:36.164Z,12.20
2022-08-19T22:23:09.490Z,11.30
2022-08-19T22:25:44.480Z,10.90
2022-08-19T22:28:27.769Z,11.60
2022-08-19T22:31:00.197Z,11.70
2022-08-19T22:33:37.452Z,11.80
2022-08-19T22:36:10.126Z,12.60
2022-08-19T22:38:42.061Z,21.10
2022-08-19T22:41:16.546Z,18.70
2022-08-19T22:43:48.940Z,16.10
2022-08-19T22:46:21.240Z,14.50
2022-08-19T22:49:01.164Z,12.50
2022-08-19T22:51:51.439Z,15.50
2022-08-19T22:54:23.365Z,12.80
2022-08-19T22:56:55.164Z,12.50
2022-08-19T22:59:27.149Z,13.50
2022-08-19T23:01:59.210Z,12.10
2022-08-19T23:04:31.247Z,12.00
2022-08-19T23:07:03.728Z,11.90
2022-08-19T23:09:35.887Z,11.30
2022-08-19T23:12:12.841Z,10.90
2022-08-19T23:14:47.274Z,11.50
2022-08-19T23:17:20.442Z,11.00
2022-08-19T23:19:53.448Z,10.60
2022-08-19T23:22:25.796Z,11.40
2022-08-19T23:25:02.674Z,12.10
2022-08-19T23:27:52.607Z,11.80
2022-08-19T23:30:27.473Z,12.70
2022-08-19T23:33:01.604Z,10.40
2022-08-19T23:35:41.763Z,10.80
2022-08-19T23:38:15.885Z,10.10
2022-08-19T23:40:49.995Z,9.90
2022-08-19T23:43:29.732Z,9.90
2022-08-19T23:46:03.994Z,9.90
2022-08-19T23:48:43.131Z,9.60
2022-08-19T23:51:17.583Z,8.60
2022-08-19T23:53:49.506Z,9.80
2022-08-19T23:56:22.514Z,9.40
2022-08-19T23:58:55.409Z,8.30
